Time;durP1;ratioP1;P1;durP2;ratioP2;P2;SDS_P1;SDS_P2;PMS_P1;PMS_P2;Temp;Humidity;BMP_temperature;BMP_pressure;BME280_temperature;BME280_humidity;BME280_pressure;Samples;Min_cycle;Max_cycle;Signal;HPM_P1;HPM_P2
2024/01/07 00:00:04;;;;;;;14.82;3.40;;;;;;;;;;4976910;28;20043;-77
2024/01/07 00:02:31;;;;;;;14.02;3.10;;;;;;;;;;4980960;28;20037;-77
2024/01/07 00:04:57;;;;;;;12.43;3.03;;;;;;;;;;4963484;28;20038;-77
2024/01/07 00:07:23;;;;;;;13.23;2.97;;;;;;;;;;4977899;28;20026;-76
2024/01/07 00:09:50;;;;;;;11.88;3.15;;;;;;;;;;4964381;28;20034;-76
2024/01/07 00:12:17;;;;;;;;;;;;;;;;;;4986139;28;20500;-75
2024/01/07 00:14:43;;;;;;;12.03;2.93;;;;;;;;;;4988360;28;19918;-74
2024/01/07 00:17:10;;;;;;;13.00;3.22;;;;;;;;;;4981922;28;20027;-75
2024/01/07 00:19:38;;;;;;;10.77;3.08;;;;;;;;;;4988566;28;20027;-75
2024/01/07 00:22:04;;;;;;;13.07;2.90;;;;;;;;;;4967076;28;20030;-77
2024/01/07 00:24:30;;;;;;;13.60;2.95;;;;;;;;;;4976360;28;20462;-77
2024/01/07 00:26:56;;;;;;;13.48;2.80;;;;;;;;;;4976183;28;20030;-77
2024/01/07 00:29:22;;;;;;;10.82;2.95;;;;;;;;;;4965828;28;20119;-76
2024/01/07 00:31:48;;;;;;;12.70;3.00;;;;;;;;;;4967067;28;20027;-77
2024/01/07 00:34:14;;;;;;;11.85;2.65;;;;;;;;;;4972589;28;20446;-77
2024/01/07 00:36:41;;;;;;;12.60;3.03;;;;;;;;;;4973465;28;20022;-77
2024/01/07 00:39:07;;;;;;;14.50;3.33;;;;;;;;;;4958980;28;20026;-76
2024/01/07 00:41:33;;;;;;;16.15;2.78;;;;;;;;;;4959813;28;20035;-77
2024/01/07 00:43:59;;;;;;;12.68;3.35;;;;;;;;;;4973347;28;20030;-76
2024/01/07 00:46:25;;;;;;;14.02;2.95;;;;;;;;;;4996211;28;20031;-76
2024/01/07 00:48:51;;;;;;;12.68;2.78;;;;;;;;;;4966957;28;20652;-77
2024/01/07 00:51:17;;;;;;;13.18;3.08;;;;;;;;;;4963780;28;20139;-77
2024/01/07 00:53:44;;;;;;;12.27;2.83;;;;;;;;;;4960268;28;20031;-76
2024/01/07 00:56:10;;;;;;;12.60;3.03;;;;;;;;;;4955599;28;21829;-76
2024/01/07 00:58:39;;;;;;;13.23;3.05;;;;;;;;;;4950634;28;20719;-78
2024/01/07 01:01:06;;;;;;;17.10;3.38;;;;;;;;;;4961940;28;20038;-76
2024/01/07 01:03:32;;;;;;;14.27;3.60;;;;;;;;;;4968922;28;20038;-77
2024/01/07 01:05:59;;;;;;;13.65;3.03;;;;;;;;;;4965875;28;20136;-77
2024/01/07 01:08:25;;;;;;;12.70;2.95;;;;;;;;;;5030628;28;20042;-76
2024/01/07 01:10:51;;;;;;;12.73;2.80;;;;;;;;;;4949609;28;20031;-75
2024/01/07 01:13:17;;;;;;;14.45;3.33;;;;;;;;;;4965455;28;20138;-78
2024/01/07 01:15:43;;;;;;;10.95;2.75;;;;;;;;;;4970328;28;20716;-76
2024/01/07 01:18:09;;;;;;;16.25;2.83;;;;;;;;;;4958868;28;20031;-76
2024/01/07 01:20:35;;;;;;;12.60;2.88;;;;;;;;;;4951299;28;20133;-76
2024/01/07 01:23:01;;;;;;;16.08;3.33;;;;;;;;;;4962994;28;20038;-76
2024/01/07 01:25:29;;;;;;;13.00;2.92;;;;;;;;;;4950554;28;20125;-77
2024/01/07 01:27:55;;;;;;;12.63;3.25;;;;;;;;;;4947102;28;20046;-77
2024/01/07 01:30:21;;;;;;;13.70;3.70;;;;;;;;;;4962155;28;20030;-77
2024/01/07 01:32:47;;;;;;;16.25;3.30;;;;;;;;;;4951876;28;20034;-77
2024/01/07 01:35:14;;;;;;;16.88;4.10;;;;;;;;;;4963938;28;20023;-78
2024/01/07 01:37:40;;;;;;;16.38;3.42;;;;;;;;;;4951486;28;20094;-77
2024/01/07 01:40:06;;;;;;;13.80;3.83;;;;;;;;;;4964523;28;20027;-76
2024/01/07 01:42:32;;;;;;;;;;;;;;;;;;4948730;28;20049;-77
2024/01/07 01:45:01;;;;;;;13.82;3.85;;;;;;;;;;4962885;28;20789;-77
2024/01/07 01:47:27;;;;;;;17.27;4.43;;;;;;;;;;4966776;28;20010;-77
2024/01/07 01:49:54;;;;;;;18.02;4.93;;;;;;;;;;4969857;28;20759;-77
2024/01/07 01:52:20;;;;;;;11.27;3.28;;;;;;;;;;4963395;28;20670;-77
2024/01/07 01:54:46;;;;;;;13.13;3.88;;;;;;;;;;4960219;28;20038;-78
2024/01/07 01:57:16;;;;;;;16.33;3.90;;;;;;;;;;4957040;28;20103;-77
2024/01/07 01:59:43;;;;;;;13.48;3.85;;;;;;;;;;4958746;28;20035;-77
2024/01/07 02:02:09;;;;;;;17.63;6.80;;;;;;;;;;4964130;28;20034;-76
2024/01/07 02:04:35;;;;;;;17.40;6.00;;;;;;;;;;4964793;28;20034;-74
2024/01/07 02:07:02;;;;;;;14.93;4.57;;;;;;;;;;4962583;28;20041;-75
2024/01/07 02:09:28;;;;;;;16.70;4.47;;;;;;;;;;4975147;28;20030;-74
2024/01/07 02:12:11;;;;;;;14.95;4.05;;;;;;;;;;4960163;28;20034;-75
2024/01/07 02:14:37;;;;;;;14.95;3.67;;;;;;;;;;4953760;28;20072;-75
2024/01/07 02:17:03;;;;;;;12.02;3.50;;;;;;;;;;4950088;28;20401;-75
2024/01/07 02:19:29;;;;;;;12.82;4.47;;;;;;;;;;4965978;28;20580;-75
2024/01/07 02:21:55;;;;;;;14.13;3.67;;;;;;;;;;4952882;28;20031;-75
2024/01/07 02:24:22;;;;;;;12.07;2.95;;;;;;;;;;4973166;28;20055;-75
2024/01/07 02:26:48;;;;;;;16.80;3.30;;;;;;;;;;4957715;28;20050;-75
2024/01/07 02:29:14;;;;;;;14.52;3.40;;;;;;;;;;4962799;28;20487;-76
2024/01/07 02:31:41;;;;;;;13.90;3.30;;;;;;;;;;4967992;28;20030;-75
2024/01/07 02:34:07;;;;;;;11.32;2.97;;;;;;;;;;4966245;28;20038;-76
2024/01/07 02:36:33;;;;;;;14.25;3.05;;;;;;;;;;4963895;28;20883;-76
2024/01/07 02:38:59;;;;;;;11.77;3.40;;;;;;;;;;4962918;28;20027;-76
2024/01/07 02:41:26;;;;;;;12.00;3.03;;;;;;;;;;4961697;28;20030;-76
2024/01/07 02:43:52;;;;;;;12.10;3.00;;;;;;;;;;4947731;28;20046;-76
2024/01/07 02:46:19;;;;;;;11.48;3.25;;;;;;;;;;4962031;28;20027;-77
2024/01/07 02:48:46;;;;;;;13.70;3.20;;;;;;;;;;4969771;28;20034;-76
2024/01/07 02:51:12;;;;;;;15.00;3.33;;;;;;;;;;4950622;28;20482;-76
2024/01/07 02:53:38;;;;;;;13.25;2.83;;;;;;;;;;4970681;28;20058;-78
2024/01/07 02:56:04;;;;;;;12.80;3.60;;;;;;;;;;4949384;28;20043;-78
2024/01/07 02:58:30;;;;;;;11.30;2.70;;;;;;;;;;4954612;28;20034;-75
2024/01/07 03:00:56;;;;;;;11.10;2.67;;;;;;;;;;4963036;28;20026;-73
2024/01/07 03:03:22;;;;;;;13.48;2.88;;;;;;;;;;4969172;28;20034;-73
2024/01/07 03:05:49;;;;;;;11.77;2.90;;;;;;;;;;4954608;28;20121;-75
2024/01/07 03:08:15;;;;;;;11.38;3.17;;;;;;;;;;4954084;28;20156;-77
2024/01/07 03:10:41;;;;;;;10.88;3.00;;;;;;;;;;4965404;28;20031;-76
2024/01/07 03:13:07;;;;;;;;;;;;;;;;;;4965471;28;20052;-77
2024/01/07 03:15:33;;;;;;;12.38;2.90;;;;;;;;;;4952346;28;19925;-77
2024/01/07 03:17:59;;;;;;;17.02;2.95;;;;;;;;;;4949797;28;20465;-75
2024/01/07 03:20:25;;;;;;;14.45;2.90;;;;;;;;;;4966622;28;20034;-75
2024/01/07 03:22:51;;;;;;;11.88;2.47;;;;;;;;;;4964220;28;20125;-76
2024/01/07 03:25:17;;;;;;;15.10;3.13;;;;;;;;;;4962367;28;20031;-76
2024/01/07 03:27:43;;;;;;;14.05;3.13;;;;;;;;;;4955013;28;20042;-76
2024/01/07 03:30:10;;;;;;;11.90;2.85;;;;;;;;;;4961397;28;20100;-75
2024/01/07 03:32:36;;;;;;;;;;;;;;;;;;4950912;28;20046;-76
2024/01/07 03:35:03;;;;;;;11.57;2.80;;;;;;;;;;4947605;28;19913;-76
2024/01/07 03:37:29;;;;;;;13.35;2.88;;;;;;;;;;4969853;28;20524;-77
2024/01/07 03:39:55;;;;;;;12.90;2.60;;;;;;;;;;4952857;28;20030;-75
2024/01/07 03:42:21;;;;;;;13.07;3.28;;;;;;;;;;4969999;28;20203;-76
2024/01/07 03:44:47;;;;;;;12.90;3.10;;;;;;;;;;4968191;28;20462;-76
2024/01/07 03:47:13;;;;;;;13.88;3.10;;;;;;;;;;4971240;28;20104;-76
2024/01/07 03:49:39;;;;;;;11.80;2.60;;;;;;;;;;4966954;28;20535;-77
2024/01/07 03:52:08;;;;;;;12.60;3.08;;;;;;;;;;4950312;28;20030;-77
2024/01/07 03:54:35;;;;;;;11.52;2.50;;;;;;;;;;4957562;28;20045;-77
2024/01/07 03:57:01;;;;;;;14.73;3.00;;;;;;;;;;4953057;28;20058;-76
2024/01/07 03:59:28;;;;;;;13.13;3.15;;;;;;;;;;4951958;28;20034;-75
2024/01/07 04:01:55;;;;;;;11.30;2.70;;;;;;;;;;4963181;28;20927;-75
2024/01/07 04:04:21;;;;;;;14.25;2.70;;;;;;;;;;4966653;28;20312;-76
2024/01/07 04:06:47;;;;;;;9.10;2.50;;;;;;;;;;4953030;28;20382;-76
2024/01/07 04:09:13;;;;;;;14.20;2.70;;;;;;;;;;4963212;28;20038;-76
2024/01/07 04:11:40;;;;;;;11.27;2.60;;;;;;;;;;4970418;28;20069;-75
2024/01/07 04:14:06;;;;;;;9.60;2.00;;;;;;;;;;4962578;28;20031;-76
2024/01/07 04:16:33;;;;;;;11.35;2.45;;;;;;;;;;4961920;28;20088;-75
2024/01/07 04:18:59;;;;;;;13.27;3.00;;;;;;;;;;4952183;28;20145;-78
2024/01/07 04:21:25;;;;;;;13.63;2.83;;;;;;;;;;4951958;28;20121;-76
2024/01/07 04:23:51;;;;;;;12.52;2.63;;;;;;;;;;4965032;28;20042;-77
2024/01/07 04:26:17;;;;;;;11.00;2.60;;;;;;;;;;4969780;28;20117;-76
2024/01/07 04:28:43;;;;;;;11.45;2.50;;;;;;;;;;4970181;28;20035;-75
2024/01/07 04:31:09;;;;;;;;;;;;;;;;;;4975186;28;20030;-76
2024/01/07 04:33:35;;;;;;;12.20;3.08;;;;;;;;;;4970054;28;19948;-77
2024/01/07 04:36:02;;;;;;;12.25;2.53;;;;;;;;;;4963588;28;20106;-76
2024/01/07 04:38:29;;;;;;;13.60;2.83;;;;;;;;;;5025764;28;20804;-76
2024/01/07 04:40:55;;;;;;;9.98;2.55;;;;;;;;;;4965754;28;20529;-76
2024/01/07 04:43:21;;;;;;;12.68;2.72;;;;;;;;;;4976210;28;20031;-76
2024/01/07 04:45:47;;;;;;;11.32;2.55;;;;;;;;;;4977475;28;20038;-76
2024/01/07 04:48:13;;;;;;;;;;;;;;;;;;4955770;28;20022;-76
2024/01/07 04:50:42;;;;;;;10.88;2.25;;;;;;;;;;4966210;28;19922;-77
2024/01/07 04:53:09;;;;;;;12.88;2.53;;;;;;;;;;4971269;28;20035;-76
2024/01/07 04:55:35;;;;;;;;;;;;;;;;;;4949534;28;20065;-76
2024/01/07 04:58:01;;;;;;;12.85;2.47;;;;;;;;;;4950282;28;20020;-75
2024/01/07 05:00:27;;;;;;;13.18;2.92;;;;;;;;;;4953427;28;20047;-76
2024/01/07 05:02:53;;;;;;;11.65;2.45;;;;;;;;;;4945893;28;20040;-77
2024/01/07 05:05:19;;;;;;;10.30;2.42;;;;;;;;;;4968716;28;20423;-76
2024/01/07 05:07:45;;;;;;;12.95;2.95;;;;;;;;;;4964039;28;20041;-76
2024/01/07 05:10:11;;;;;;;11.90;2.90;;;;;;;;;;4964663;28;20041;-75
2024/01/07 05:12:38;;;;;;;11.90;2.85;;;;;;;;;;4962506;28;20050;-76
2024/01/07 05:15:04;;;;;;;10.55;2.67;;;;;;;;;;4949922;28;20034;-76
2024/01/07 05:17:30;;;;;;;13.63;2.70;;;;;;;;;;4969546;28;20033;-76
2024/01/07 05:19:56;;;;;;;11.93;2.60;;;;;;;;;;4946411;28;20471;-76
2024/01/07 05:22:23;;;;;;;12.70;3.08;;;;;;;;;;4961496;28;20025;-78
2024/01/07 05:24:49;;;;;;;13.02;2.60;;;;;;;;;;4983727;28;20034;-76
2024/01/07 05:27:15;;;;;;;11.50;2.65;;;;;;;;;;4951899;28;20031;-76
2024/01/07 05:29:45;;;;;;;12.75;2.90;;;;;;;;;;4952472;28;20110;-74
2024/01/07 05:32:12;;;;;;;13.02;2.88;;;;;;;;;;4949045;28;20410;-76
2024/01/07 05:34:38;;;;;;;13.38;2.97;;;;;;;;;;4972569;28;20031;-76
2024/01/07 05:37:04;;;;;;;10.52;2.47;;;;;;;;;;4949516;28;20395;-76
2024/01/07 05:39:30;;;;;;;13.00;3.00;;;;;;;;;;4964754;28;20103;-78
2024/01/07 05:41:56;;;;;;;15.60;3.22;;;;;;;;;;4965105;28;20026;-75
2024/01/07 05:44:22;;;;;;;14.23;3.03;;;;;;;;;;4961829;28;20027;-77
2024/01/07 05:46:48;;;;;;;14.55;2.72;;;;;;;;;;4955696;28;20039;-78
2024/01/07 05:49:14;;;;;;;13.23;2.72;;;;;;;;;;4948679;28;20031;-77
2024/01/07 05:51:41;;;;;;;12.35;2.92;;;;;;;;;;4951721;28;20327;-77
2024/01/07 05:54:07;;;;;;;;;;;;;;;;;;4964523;28;20069;-76
2024/01/07 05:56:33;;;;;;;13.73;2.72;;;;;;;;;;4949444;28;20055;-76
2024/01/07 05:58:59;;;;;;;12.13;2.40;;;;;;;;;;4961179;28;20022;-77
2024/01/07 06:01:27;;;;;;;15.07;2.80;;;;;;;;;;4954949;28;20034;-76
2024/01/07 06:03:53;;;;;;;12.32;2.80;;;;;;;;;;4951997;28;20533;-75
2024/01/07 06:06:19;;;;;;;13.27;2.70;;;;;;;;;;4963513;28;20094;-77
2024/01/07 06:08:45;;;;;;;12.50;2.85;;;;;;;;;;4948208;28;20164;-75
2024/01/07 06:11:18;;;;;;;14.23;3.03;;;;;;;;;;4946579;28;20039;-75
2024/01/07 06:13:44;;;;;;;11.70;2.50;;;;;;;;;;4967921;28;20050;-76
2024/01/07 06:16:10;;;;;;;12.52;2.60;;;;;;;;;;4953607;28;20092;-76
2024/01/07 06:18:37;;;;;;;13.95;2.50;;;;;;;;;;4956938;28;20115;-76
2024/01/07 06:21:03;;;;;;;11.32;2.42;;;;;;;;;;4963865;28;20058;-75
2024/01/07 06:23:29;;;;;;;10.70;2.70;;;;;;;;;;4949416;28;20037;-76
2024/01/07 06:25:55;;;;;;;10.02;2.42;;;;;;;;;;4968884;28;20034;-77
2024/01/07 06:28:21;;;;;;;11.65;2.10;;;;;;;;;;4970297;28;20030;-76
2024/01/07 06:30:47;;;;;;;11.25;2.30;;;;;;;;;;4979732;28;20039;-75
2024/01/07 06:33:13;;;;;;;10.98;2.15;;;;;;;;;;4970707;28;20113;-80
2024/01/07 06:35:39;;;;;;;15.77;2.30;;;;;;;;;;4966703;28;20026;-79
2024/01/07 06:38:05;;;;;;;13.75;2.75;;;;;;;;;;4963897;28;20034;-78
2024/01/07 06:40:32;;;;;;;13.10;2.67;;;;;;;;;;4970120;28;20039;-75
2024/01/07 06:42:58;;;;;;;10.60;2.63;;;;;;;;;;4961582;28;20022;-76
2024/01/07 06:45:24;;;;;;;12.43;2.58;;;;;;;;;;4970382;28;20027;-76
2024/01/07 06:47:50;;;;;;;13.93;2.58;;;;;;;;;;4954792;28;20137;-75
2024/01/07 06:50:17;;;;;;;9.00;2.25;;;;;;;;;;4967099;28;20034;-76
2024/01/07 06:52:43;;;;;;;12.05;2.45;;;;;;;;;;4961918;28;20057;-77
2024/01/07 06:55:09;;;;;;;11.32;2.60;;;;;;;;;;4944932;28;20105;-77
2024/01/07 06:57:35;;;;;;;13.27;3.00;;;;;;;;;;4949108;28;20129;-75
2024/01/07 07:00:02;;;;;;;15.27;2.63;;;;;;;;;;4962840;28;20038;-76
2024/01/07 07:02:29;;;;;;;9.38;2.45;;;;;;;;;;4956553;28;20059;-77
2024/01/07 07:04:55;;;;;;;11.82;2.72;;;;;;;;;;4952389;28;20084;-76
2024/01/07 07:07:21;;;;;;;9.10;2.28;;;;;;;;;;4965120;28;20037;-77
2024/01/07 07:09:47;;;;;;;14.25;2.72;;;;;;;;;;4968259;28;20025;-77
2024/01/07 07:12:13;;;;;;;10.27;2.53;;;;;;;;;;4948204;28;20041;-76
2024/01/07 07:14:39;;;;;;;12.65;2.50;;;;;;;;;;4967152;28;20041;-77
2024/01/07 07:17:05;;;;;;;11.20;2.42;;;;;;;;;;4946938;28;20061;-76
2024/01/07 07:19:32;;;;;;;11.43;2.35;;;;;;;;;;4964267;28;20038;-76
2024/01/07 07:21:58;;;;;;;10.93;2.65;;;;;;;;;;4968186;28;20034;-76
2024/01/07 07:24:24;;;;;;;10.75;2.70;;;;;;;;;;4964554;28;20034;-75
2024/01/07 07:26:50;;;;;;;;;;;;;;;;;;4966467;28;20057;-76
2024/01/07 07:29:16;;;;;;;13.68;2.30;;;;;;;;;;4955855;28;19918;-75
2024/01/07 07:31:42;;;;;;;11.38;2.42;;;;;;;;;;4970734;28;20060;-76
2024/01/07 07:34:10;;;;;;;11.30;2.67;;;;;;;;;;4971410;28;20039;-75
2024/01/07 07:36:36;;;;;;;11.95;2.97;;;;;;;;;;4957225;28;20030;-75
2024/01/07 07:39:02;;;;;;;10.65;2.85;;;;;;;;;;4963362;28;20041;-75
2024/01/07 07:41:28;;;;;;;12.82;3.22;;;;;;;;;;4965411;28;20026;-76
2024/01/07 07:43:54;;;;;;;;;;;;;;;;;;4964970;28;20031;-75
2024/01/07 07:46:20;;;;;;;13.10;2.92;;;;;;;;;;4966686;28;19982;-77
2024/01/07 07:48:46;;;;;;;11.32;2.97;;;;;;;;;;4970250;28;20076;-76
2024/01/07 07:51:12;;;;;;;11.30;2.60;;;;;;;;;;4946006;28;20026;-76
2024/01/07 07:53:42;;;;;;;10.15;2.72;;;;;;;;;;4944468;28;20080;-75
2024/01/07 07:56:08;;;;;;;11.02;2.85;;;;;;;;;;4965121;28;20034;-76
2024/01/07 07:58:35;;;;;;;9.90;2.53;;;;;;;;;;4965246;28;20051;-74
2024/01/07 08:01:01;;;;;;;13.57;3.13;;;;;;;;;;4960371;28;20503;-76
2024/01/07 08:03:27;;;;;;;12.48;3.00;;;;;;;;;;4951190;28;20037;-77
2024/01/07 08:05:53;;;;;;;12.73;2.65;;;;;;;;;;4971347;28;20053;-74
2024/01/07 08:08:19;;;;;;;11.68;2.67;;;;;;;;;;4971595;28;20043;-75
2024/01/07 08:10:45;;;;;;;9.13;2.28;;;;;;;;;;4987215;28;20635;-75
2024/01/07 08:13:11;;;;;;;11.70;2.60;;;;;;;;;;4958598;28;20142;-75
2024/01/07 08:15:37;;;;;;;12.75;2.78;;;;;;;;;;4972250;28;20572;-75
2024/01/07 08:18:04;;;;;;;14.00;2.60;;;;;;;;;;4970866;28;20073;-74
2024/01/07 08:20:30;;;;;;;;;;;;;;;;;;4982100;28;20481;-75
2024/01/07 08:22:56;;;;;;;10.35;1.95;;;;;;;;;;4978685;28;19958;-74
2024/01/07 08:25:23;;;;;;;9.18;1.90;;;;;;;;;;4985332;28;20069;-74
2024/01/07 08:27:49;;;;;;;10.00;2.20;;;;;;;;;;4983451;28;20050;-75
2024/01/07 08:30:15;;;;;;;;;;;;;;;;;;4967203;28;20144;-74
2024/01/07 08:32:41;;;;;;;9.18;1.98;;;;;;;;;;4966296;28;19926;-75
2024/01/07 08:35:07;;;;;;;;;;;;;;;;;;4954334;28;20033;-75
2024/01/07 08:37:34;;;;;;;11.30;2.20;;;;;;;;;;4962291;28;19913;-76
2024/01/07 08:40:00;;;;;;;12.35;2.75;;;;;;;;;;4961079;28;20026;-75
2024/01/07 08:42:29;;;;;;;8.35;1.90;;;;;;;;;;4958502;28;20080;-75
2024/01/07 08:44:56;;;;;;;10.25;2.40;;;;;;;;;;4947828;28;20043;-75
2024/01/07 08:47:22;;;;;;;9.88;2.30;;;;;;;;;;4962366;28;20441;-75
2024/01/07 08:49:48;;;;;;;;;;;;;;;;;;4963087;28;20733;-75
2024/01/07 08:52:14;;;;;;;11.32;2.58;;;;;;;;;;4946940;28;19917;-76
2024/01/07 08:54:40;;;;;;;;;;;;;;;;;;4963517;28;20031;-75
2024/01/07 08:57:06;;;;;;;10.57;2.47;;;;;;;;;;4955442;28;21077;-75
2024/01/07 08:59:32;;;;;;;10.27;2.25;;;;;;;;;;4947860;28;20494;-74
2024/01/07 09:01:58;;;;;;;9.02;2.03;;;;;;;;;;4940557;28;20121;-78
2024/01/07 09:04:24;;;;;;;;;;;;;;;;;;4947242;28;20041;-75
2024/01/07 09:06:51;;;;;;;8.73;1.88;;;;;;;;;;4957427;28;19916;-75
2024/01/07 09:09:17;;;;;;;8.77;1.95;;;;;;;;;;4943191;28;20451;-76
2024/01/07 09:11:43;;;;;;;;;;;;;;;;;;4961112;28;20058;-78
2024/01/07 09:14:09;;;;;;;9.48;2.28;;;;;;;;;;4958399;28;19925;-76
2024/01/07 09:16:35;;;;;;;;;;;;;;;;;;4945571;28;20027;-75
2024/01/07 09:19:01;;;;;;;12.82;2.53;;;;;;;;;;4957065;28;20050;-77
2024/01/07 09:21:27;;;;;;;11.77;2.40;;;;;;;;;;4958677;28;20022;-77
2024/01/07 09:23:53;;;;;;;;;;;;;;;;;;4940750;28;20041;-76
2024/01/07 09:26:20;;;;;;;10.27;2.90;;;;;;;;;;4940121;28;19963;-76
2024/01/07 09:28:46;;;;;;;10.20;2.70;;;;;;;;;;4959532;28;20043;-75
2024/01/07 09:31:12;;;;;;;12.30;2.90;;;;;;;;;;4948940;28;20073;-76
2024/01/07 09:33:38;;;;;;;;;;;;;;;;;;4954764;28;20038;-75
2024/01/07 09:36:05;;;;;;;13.05;3.05;;;;;;;;;;4950856;28;19983;-75
2024/01/07 09:38:31;;;;;;;11.27;3.20;;;;;;;;;;4957234;28;20046;-76
2024/01/07 09:40:57;;;;;;;10.52;2.95;;;;;;;;;;4950141;28;20048;-75
2024/01/07 09:43:23;;;;;;;11.88;2.35;;;;;;;;;;4974370;28;20029;-75
2024/01/07 09:45:49;;;;;;;12.40;3.08;;;;;;;;;;4959032;28;20032;-76
2024/01/07 09:48:15;;;;;;;12.05;2.97;;;;;;;;;;4972160;28;20030;-76
2024/01/07 09:50:42;;;;;;;11.43;3.53;;;;;;;;;;4953620;28;20038;-76
2024/01/07 09:53:12;;;;;;;15.40;3.50;;;;;;;;;;4952428;28;20163;-75
2024/01/07 09:55:42;;;;;;;11.55;2.70;;;;;;;;;;4957262;28;20107;-74
2024/01/07 09:58:08;;;;;;;10.52;2.97;;;;;;;;;;4956054;28;20077;-75
2024/01/07 10:00:35;;;;;;;14.00;2.65;;;;;;;;;;4978297;28;20031;-75
2024/01/07 10:03:02;;;;;;;9.38;2.63;;;;;;;;;;4971212;28;20561;-75
2024/01/07 10:05:28;;;;;;;10.20;2.65;;;;;;;;;;4955184;28;20038;-75
2024/01/07 10:07:57;;;;;;;11.05;2.53;;;;;;;;;;4969361;28;20474;-75
2024/01/07 10:10:23;;;;;;;9.05;2.40;;;;;;;;;;4954908;28;20032;-75
2024/01/07 10:12:52;;;;;;;9.35;3.17;;;;;;;;;;4961243;28;20153;-76
2024/01/07 10:15:19;;;;;;;12.40;2.30;;;;;;;;;;4953152;28;20033;-76
2024/01/07 10:17:45;;;;;;;9.63;2.35;;;;;;;;;;4974183;28;20135;-76
2024/01/07 10:20:12;;;;;;;11.45;2.70;;;;;;;;;;4960367;28;20935;-75
2024/01/07 10:22:40;;;;;;;9.98;3.05;;;;;;;;;;4969137;28;20103;-75
2024/01/07 10:25:06;;;;;;;11.25;2.88;;;;;;;;;;4966863;28;20027;-76
2024/01/07 10:27:37;;;;;;;12.18;3.08;;;;;;;;;;4963387;28;20514;-75
2024/01/07 10:30:04;;;;;;;10.45;2.38;;;;;;;;;;4949833;28;20035;-76
2024/01/07 10:32:30;;;;;;;9.95;2.47;;;;;;;;;;4953370;28;20031;-75
2024/01/07 10:35:03;;;;;;;10.82;2.83;;;;;;;;;;5016324;28;20030;-75
2024/01/07 10:37:29;;;;;;;11.85;3.00;;;;;;;;;;4965049;28;20031;-76
2024/01/07 10:40:00;;;;;;;8.68;2.45;;;;;;;;;;4964130;28;20117;-74
2024/01/07 10:42:27;;;;;;;11.25;2.75;;;;;;;;;;4958657;28;20742;-76
2024/01/07 10:44:53;;;;;;;10.77;3.10;;;;;;;;;;4959210;28;20070;-74
2024/01/07 10:47:20;;;;;;;10.13;2.92;;;;;;;;;;4975423;28;20859;-75
2024/01/07 10:49:50;;;;;;;8.88;2.20;;;;;;;;;;4968472;28;20523;-75
2024/01/07 10:52:17;;;;;;;9.70;2.65;;;;;;;;;;4969546;28;20030;-75
2024/01/07 10:54:45;;;;;;;10.30;2.92;;;;;;;;;;4959138;28;20024;-76
2024/01/07 10:57:12;;;;;;;12.52;3.15;;;;;;;;;;4967467;28;20762;-75
2024/01/07 10:59:38;;;;;;;12.65;3.65;;;;;;;;;;4990441;28;20038;-78
2024/01/07 11:02:04;;;;;;;13.02;2.85;;;;;;;;;;4978213;28;20028;-76
2024/01/07 11:04:37;;;;;;;12.93;2.47;;;;;;;;;;4980391;28;20023;-75
2024/01/07 11:07:14;;;;;;;10.40;2.90;;;;;;;;;;4965017;28;20043;-76
2024/01/07 11:09:47;;;;;;;12.27;3.20;;;;;;;;;;4975513;28;20069;-75
2024/01/07 11:12:13;;;;;;;9.25;3.50;;;;;;;;;;4977186;28;20039;-76
2024/01/07 11:14:52;;;;;;;12.38;2.95;;;;;;;;;;4987288;28;20088;-75
2024/01/07 11:17:37;;;;;;;11.93;2.55;;;;;;;;;;5037863;28;20105;-76
2024/01/07 11:20:05;;;;;;;11.95;3.45;;;;;;;;;;4969934;28;20056;-76
2024/01/07 11:22:32;;;;;;;13.38;3.58;;;;;;;;;;4986236;28;20066;-76
2024/01/07 11:24:59;;;;;;;11.65;3.35;;;;;;;;;;4977633;28;20025;-75
2024/01/07 11:27:26;;;;;;;10.85;3.42;;;;;;;;;;4980529;28;20067;-75
2024/01/07 11:29:56;;;;;;;12.43;3.75;;;;;;;;;;4953470;28;20031;-77
2024/01/07 11:32:29;;;;;;;12.30;4.22;;;;;;;;;;4954659;28;20038;-77
2024/01/07 11:34:58;;;;;;;10.38;2.80;;;;;;;;;;4968959;28;21327;-74
2024/01/07 11:37:24;;;;;;;8.95;2.47;;;;;;;;;;4957239;28;20554;-76
2024/01/07 11:39:52;;;;;;;10.73;2.45;;;;;;;;;;4970018;28;20556;-74
2024/01/07 11:42:18;;;;;;;9.55;2.30;;;;;;;;;;4952640;28;20420;-75
2024/01/07 11:44:51;;;;;;;10.80;2.92;;;;;;;;;;4977122;28;20031;-74
2024/01/07 11:47:17;;;;;;;12.25;4.95;;;;;;;;;;4975745;28;20034;-76
2024/01/07 11:49:44;;;;;;;14.70;4.50;;;;;;;;;;4967074;28;20157;-76
2024/01/07 11:52:10;;;;;;;11.85;3.15;;;;;;;;;;4979408;28;20075;-76
2024/01/07 11:54:40;;;;;;;10.30;3.05;;;;;;;;;;4950236;28;20584;-77
2024/01/07 11:57:06;;;;;;;10.40;2.58;;;;;;;;;;4974040;28;20054;-75
2024/01/07 11:59:34;;;;;;;9.60;3.20;;;;;;;;;;4975143;28;20031;-75
2024/01/07 12:02:00;;;;;;;12.02;4.25;;;;;;;;;;4958787;28;20983;-74
2024/01/07 12:04:28;;;;;;;12.20;4.30;;;;;;;;;;4969689;28;20244;-75
2024/01/07 12:06:54;;;;;;;10.90;3.40;;;;;;;;;;4980385;28;20026;-76
2024/01/07 12:09:20;;;;;;;14.20;3.63;;;;;;;;;;4999031;28;20157;-75
2024/01/07 12:11:46;;;;;;;13.80;3.50;;;;;;;;;;4976566;28;20088;-76
2024/01/07 12:14:12;;;;;;;10.57;3.63;;;;;;;;;;4966789;28;20104;-78
2024/01/07 12:16:39;;;;;;;8.55;3.33;;;;;;;;;;4970653;28;20022;-77
2024/01/07 12:19:05;;;;;;;11.48;3.50;;;;;;;;;;4973001;28;20028;-77
2024/01/07 12:21:31;;;;;;;11.32;2.78;;;;;;;;;;4964277;28;20875;-77
2024/01/07 12:23:58;;;;;;;11.05;2.25;;;;;;;;;;4979745;28;20037;-77
2024/01/07 12:26:28;;;;;;;10.23;3.20;;;;;;;;;;4954917;28;20020;-76
2024/01/07 12:28:55;;;;;;;11.75;3.08;;;;;;;;;;4947509;28;20042;-77
2024/01/07 12:31:21;;;;;;;12.63;3.30;;;;;;;;;;4963537;28;20708;-76
2024/01/07 12:33:48;;;;;;;14.15;3.45;;;;;;;;;;4948961;28;20110;-76
2024/01/07 12:36:14;;;;;;;12.38;3.10;;;;;;;;;;4947061;28;20807;-77
2024/01/07 12:38:41;;;;;;;10.30;3.30;;;;;;;;;;4954981;28;20479;-77
2024/01/07 12:41:07;;;;;;;11.27;3.20;;;;;;;;;;4953295;28;20510;-77
2024/01/07 12:43:34;;;;;;;11.02;2.50;;;;;;;;;;4966685;28;20871;-78
2024/01/07 12:46:05;;;;;;;11.50;2.70;;;;;;;;;;4959826;28;20038;-78
2024/01/07 12:48:31;;;;;;;13.15;3.65;;;;;;;;;;4970759;28;20030;-77
2024/01/07 12:50:58;;;;;;;11.80;3.58;;;;;;;;;;4969042;28;20034;-77
2024/01/07 12:53:24;;;;;;;12.55;3.40;;;;;;;;;;4973411;28;20031;-76
2024/01/07 12:55:50;;;;;;;11.82;2.80;;;;;;;;;;4964785;28;20034;-75
2024/01/07 12:58:16;;;;;;;14.50;2.85;;;;;;;;;;5021384;28;20047;-77
2024/01/07 13:00:43;;;;;;;12.02;3.42;;;;;;;;;;4953263;28;20080;-77
2024/01/07 13:03:17;;;;;;;13.23;3.58;;;;;;;;;;5019280;28;20034;-77
2024/01/07 13:05:43;;;;;;;10.23;2.90;;;;;;;;;;4960718;28;20042;-77
2024/01/07 13:08:09;;;;;;;10.85;3.42;;;;;;;;;;4947845;28;20034;-76
2024/01/07 13:10:35;;;;;;;10.57;3.50;;;;;;;;;;4967462;28;20109;-77
2024/01/07 13:13:03;;;;;;;13.55;3.13;;;;;;;;;;4948152;28;20101;-77
2024/01/07 13:15:29;;;;;;;11.65;3.10;;;;;;;;;;4950246;28;20031;-76
2024/01/07 13:17:55;;;;;;;9.60;3.10;;;;;;;;;;4945940;28;20031;-77
2024/01/07 13:20:21;;;;;;;12.23;3.47;;;;;;;;;;4969022;28;21613;-76
2024/01/07 13:22:48;;;;;;;10.77;3.95;;;;;;;;;;4969425;28;20089;-76
2024/01/07 13:25:14;;;;;;;13.07;3.50;;;;;;;;;;4970203;28;20449;-77
2024/01/07 13:27:42;;;;;;;11.95;2.80;;;;;;;;;;4953853;28;20104;-77
2024/01/07 13:30:09;;;;;;;10.30;3.40;;;;;;;;;;4947896;28;20030;-77
2024/01/07 13:32:36;;;;;;;11.57;3.03;;;;;;;;;;4965799;28;20027;-76
2024/01/07 13:35:06;;;;;;;13.18;4.32;;;;;;;;;;4951026;28;20035;-76
2024/01/07 13:37:32;;;;;;;15.13;4.40;;;;;;;;;;4964166;28;20586;-76
2024/01/07 13:39:58;;;;;;;10.32;3.75;;;;;;;;;;4966337;28;20038;-75
2024/01/07 13:42:24;;;;;;;11.60;3.33;;;;;;;;;;4962036;28;20113;-76
2024/01/07 13:44:50;;;;;;;10.88;3.40;;;;;;;;;;4948709;28;20038;-76
2024/01/07 13:47:17;;;;;;;10.93;2.95;;;;;;;;;;4948758;28;20038;-77
2024/01/07 13:49:44;;;;;;;9.85;3.13;;;;;;;;;;4973872;28;20044;-76
2024/01/07 13:52:11;;;;;;;11.50;2.80;;;;;;;;;;4966700;28;20073;-76
2024/01/07 13:54:37;;;;;;;12.07;3.20;;;;;;;;;;4961420;28;20034;-76
2024/01/07 13:57:03;;;;;;;10.32;2.50;;;;;;;;;;4977499;28;20689;-77
2024/01/07 13:59:30;;;;;;;10.13;2.63;;;;;;;;;;4959480;28;20054;-76
2024/01/07 14:01:59;;;;;;;9.32;2.42;;;;;;;;;;4968453;28;20031;-76
2024/01/07 14:04:25;;;;;;;14.60;2.88;;;;;;;;;;4957074;28;20078;-76
2024/01/07 14:06:56;;;;;;;10.60;3.13;;;;;;;;;;4974927;28;20155;-76
2024/01/07 14:09:22;;;;;;;10.70;2.67;;;;;;;;;;4980356;28;20030;-76
2024/01/07 14:11:48;;;;;;;12.50;2.85;;;;;;;;;;4961306;28;20596;-76
2024/01/07 14:14:14;;;;;;;9.13;2.42;;;;;;;;;;4966080;28;20026;-76
2024/01/07 14:16:41;;;;;;;8.98;2.42;;;;;;;;;;4950219;28;20030;-76
2024/01/07 14:19:07;;;;;;;9.60;2.78;;;;;;;;;;4966685;28;20025;-76
2024/01/07 14:21:33;;;;;;;9.93;2.53;;;;;;;;;;4965651;28;20034;-75
2024/01/07 14:23:59;;;;;;;9.02;2.17;;;;;;;;;;4965693;28;20087;-76
2024/01/07 14:26:25;;;;;;;10.63;2.47;;;;;;;;;;4965767;28;20644;-76
2024/01/07 14:28:51;;;;;;;8.20;2.22;;;;;;;;;;5026477;28;20129;-76
2024/01/07 14:31:20;;;;;;;9.15;2.10;;;;;;;;;;5028974;28;20126;-76
2024/01/07 14:33:46;;;;;;;13.77;3.05;;;;;;;;;;4960419;28;20503;-76